createdAt,value
2018-07-13T00:00:36.601Z,8.87
2018-07-13T00:05:23.162Z,8.10
2018-07-13T00:10:06.759Z,7.27
2018-07-13T00:15:01.308Z,7.00
2018-07-13T00:19:44.874Z,8.20
2018-07-13T00:24:28.537Z,7.90
2018-07-13T00:29:12.267Z,7.03
2018-07-13T00:34:01.388Z,7.13
2018-07-13T00:38:44.922Z,6.83
2018-07-13T00:43:29.545Z,6.00
2018-07-13T00:48:13.128Z,7.57
2018-07-13T00:52:56.463Z,18.73
2018-07-13T00:57:43.316Z,19.87
2018-07-13T01:02:26.909Z,19.83
2018-07-13T01:07:14.192Z,12.97
2018-07-13T01:11:57.775Z,9.80
2018-07-13T01:16:41.488Z,17.63
2018-07-13T01:21:25.153Z,17.97
2018-07-13T01:26:12.190Z,16.77
2018-07-13T01:30:55.738Z,12.77
2018-07-13T01:35:42.668Z,14.03
2018-07-13T01:40:26.113Z,27.73
2018-07-13T01:45:10.847Z,19.70
2018-07-13T01:49:54.449Z,21.47
2018-07-13T01:54:38.148Z,24.13
2018-07-13T01:59:21.500Z,25.03
2018-07-13T02:04:05.206Z,28.67
2018-07-13T02:08:48.764Z,16.73
2018-07-13T02:13:35.725Z,12.50
2018-07-13T02:18:19.172Z,7.07
2018-07-13T02:23:02.739Z,6.70
2018-07-13T02:27:49.782Z,6.47
2018-07-13T02:32:33.399Z,7.13
2018-07-13T02:37:20.012Z,14.77
2018-07-13T02:42:03.572Z,20.60
2018-07-13T02:46:48.199Z,22.33
2018-07-13T02:51:31.502Z,31.27
2018-07-13T02:56:16.055Z,33.20
2018-07-13T03:00:59.452Z,9.43
2018-07-13T03:05:46.142Z,31.77
2018-07-13T03:10:29.631Z,34.13
2018-07-13T03:15:14.190Z,29.37
2018-07-13T03:19:57.811Z,37.07
2018-07-13T03:24:42.248Z,30.77
2018-07-13T03:29:25.924Z,36.90
2018-07-13T03:34:12.654Z,27.20
2018-07-13T03:38:56.193Z,33.87
2018-07-13T03:43:44.028Z,33.27
2018-07-13T03:48:27.513Z,29.77
2018-07-13T03:53:12.066Z,24.57
2018-07-13T03:57:55.798Z,27.87
2018-07-13T04:02:39.394Z,19.70
2018-07-13T04:07:26.519Z,14.13
2018-07-13T04:12:10.158Z,10.43
2018-07-13T04:16:59.651Z,30.33
2018-07-13T04:21:43.278Z,14.63
2018-07-13T04:26:27.990Z,7.40
2018-07-13T04:31:11.667Z,9.13
2018-07-13T04:35:58.901Z,6.80
2018-07-13T04:40:42.599Z,7.67
2018-07-13T04:45:29.762Z,7.17
2018-07-13T04:50:13.360Z,7.77
2018-07-13T04:55:00.407Z,7.73
2018-07-13T04:59:45.952Z,9.63
2018-07-13T05:04:30.912Z,7.77
2018-07-13T05:09:14.906Z,8.10
2018-07-13T05:13:58.478Z,8.00
2018-07-13T05:18:42.058Z,8.33
2018-07-13T05:23:28.716Z,11.87
2018-07-13T05:28:12.162Z,8.57
2018-07-13T05:32:55.913Z,8.20
2018-07-13T05:37:39.374Z,8.73
2018-07-13T05:42:23.004Z,9.03
2018-07-13T05:47:10.202Z,8.77
2018-07-13T05:51:53.714Z,8.70
2018-07-13T05:56:42.516Z,8.43
2018-07-13T06:01:25.957Z,8.60
2018-07-13T06:06:09.704Z,9.10
2018-07-13T06:10:53.238Z,8.30
2018-07-13T06:15:39.973Z,9.77
2018-07-13T06:20:23.473Z,9.43
2018-07-13T06:25:11.517Z,8.60
2018-07-13T06:29:55.065Z,9.40
2018-07-13T06:34:38.757Z,9.53
2018-07-13T06:39:22.258Z,9.03
2018-07-13T06:44:05.853Z,9.90
2018-07-13T06:48:49.607Z,10.70
2018-07-13T06:53:36.302Z,9.57
2018-07-13T06:58:30.683Z,11.53
2018-07-13T07:03:15.421Z,9.73
2018-07-13T07:07:58.984Z,10.17
2018-07-13T07:13:02.956Z,11.77
2018-07-13T07:17:46.517Z,9.80
2018-07-13T07:22:30.237Z,8.27
2018-07-13T07:27:13.994Z,8.30
2018-07-13T07:31:57.672Z,8.57
2018-07-13T07:36:41.357Z,8.07
2018-07-13T07:41:25.215Z,8.57
2018-07-13T07:46:08.811Z,9.17
2018-07-13T07:50:52.446Z,8.07
2018-07-13T07:55:36.072Z,8.53
2018-07-13T08:00:19.653Z,9.30
2018-07-13T08:05:03.530Z,8.65
2018-07-13T08:09:47.008Z,9.40
2018-07-13T08:14:34.732Z,8.43
2018-07-13T08:19:18.266Z,9.70
2018-07-13T08:24:03.416Z,8.73
2018-07-13T08:28:48.337Z,9.10
2018-07-13T08:33:32.043Z,8.40
2018-07-13T08:38:15.619Z,9.00
2018-07-13T08:43:00.065Z,8.68
2018-07-13T08:47:43.663Z,8.63
2018-07-13T08:52:27.360Z,10.00
2018-07-13T08:57:10.758Z,9.18
2018-07-13T09:01:54.349Z,9.48
2018-07-13T09:06:39.057Z,8.93
2018-07-13T09:11:35.449Z,8.98
2018-07-13T09:16:20.244Z,8.73
2018-07-13T09:21:04.442Z,8.15
2018-07-13T09:25:51.798Z,7.33
2018-07-13T09:30:35.262Z,7.25
2018-07-13T09:35:19.736Z,8.05
2018-07-13T09:40:03.242Z,6.75
2018-07-13T09:44:48.555Z,7.33
2018-07-13T09:49:32.264Z,6.78
2018-07-13T09:54:16.722Z,6.42
2018-07-13T09:59:00.185Z,8.58
2018-07-13T10:03:44.737Z,6.60
2018-07-13T10:09:58.259Z,6.30
2018-07-13T10:14:42.853Z,6.17
2018-07-13T10:19:26.264Z,6.47
2018-07-13T10:24:09.803Z,7.67
2018-07-13T10:28:53.381Z,5.73
2018-07-13T10:33:40.020Z,6.25
2018-07-13T10:38:23.634Z,5.97
2018-07-13T10:43:07.382Z,6.33
2018-07-13T10:47:51.229Z,6.45
2018-07-13T10:52:34.972Z,6.03
2018-07-13T10:57:18.553Z,6.15
2018-07-13T11:02:02.473Z,5.83
2018-07-13T11:06:46.069Z,7.15
2018-07-13T11:11:29.721Z,5.00
2018-07-13T11:16:14.450Z,5.17
2018-07-13T11:20:58.042Z,7.10
2018-07-13T11:25:42.827Z,6.37
2018-07-13T11:30:26.098Z,6.53
2018-07-13T11:35:12.749Z,6.55
2018-07-13T11:39:56.345Z,6.00
2018-07-13T11:44:40.015Z,6.12
2018-07-13T11:49:23.653Z,6.12
2018-07-13T11:54:10.928Z,6.12
2018-07-13T11:58:54.594Z,7.42
2018-07-13T12:03:41.712Z,10.00
2018-07-13T12:08:25.311Z,12.53
2018-07-13T12:13:12.892Z,12.68
2018-07-13T12:17:56.501Z,12.00
2018-07-13T12:22:43.230Z,12.45
2018-07-13T12:27:26.795Z,13.25
2018-07-13T12:32:11.342Z,12.05
2018-07-13T12:36:54.988Z,11.00
2018-07-13T12:41:38.545Z,13.75
2018-07-13T12:46:22.330Z,13.78
2018-07-13T12:51:05.919Z,11.68
2018-07-13T12:55:49.562Z,10.70
2018-07-13T13:00:33.025Z,12.37
2018-07-13T13:05:31.610Z,7.05
2018-07-13T13:10:15.294Z,5.70
2018-07-13T13:14:58.997Z,8.97
2018-07-13T13:19:42.583Z,8.10
2018-07-13T13:24:27.419Z,9.20
2018-07-13T13:29:11.115Z,8.37
2018-07-13T13:33:54.636Z,8.27
2018-07-13T13:38:38.166Z,6.93
2018-07-13T13:43:24.840Z,10.93
2018-07-13T13:48:08.510Z,3.50
2018-07-13T13:52:52.324Z,2.57
2018-07-13T13:57:35.918Z,2.10
2018-07-13T14:02:20.567Z,3.23
2018-07-13T14:07:03.949Z,3.70
2018-07-13T14:11:47.697Z,1.73
2018-07-13T14:16:31.332Z,2.50
2018-07-13T14:21:15.011Z,1.73
2018-07-13T14:25:58.664Z,2.30
2018-07-13T14:30:42.259Z,2.10
2018-07-13T14:35:29.561Z,2.03
2018-07-13T14:40:13.152Z,4.37
2018-07-13T14:44:56.840Z,7.67
2018-07-13T14:49:46.443Z,2.77
2018-07-13T14:54:30.012Z,2.03
2018-07-13T14:59:13.609Z,3.40
2018-07-13T15:04:00.342Z,2.27
2018-07-13T15:08:43.833Z,2.53
2018-07-13T15:13:27.472Z,2.43
2018-07-13T15:18:11.110Z,2.40
2018-07-13T15:22:54.766Z,2.73
2018-07-13T15:27:38.373Z,3.73
2018-07-13T15:32:23.002Z,2.33
2018-07-13T15:37:06.562Z,3.17
2018-07-13T15:41:50.471Z,4.93
2018-07-13T15:46:34.036Z,4.20
2018-07-13T15:51:17.647Z,5.60
2018-07-13T15:56:01.268Z,5.37
2018-07-13T16:00:44.792Z,3.73
2018-07-13T16:05:28.752Z,4.50
2018-07-13T16:10:12.455Z,4.83
2018-07-13T16:14:56.226Z,2.77
2018-07-13T16:19:39.696Z,4.07
2018-07-13T16:24:23.545Z,2.43
2018-07-13T16:29:07.237Z,2.17
2018-07-13T16:33:54.406Z,3.40
2018-07-13T16:38:38.009Z,2.20
2018-07-13T16:43:25.055Z,6.00
2018-07-13T16:48:08.626Z,4.30
2018-07-13T16:52:53.373Z,9.77
2018-07-13T16:57:37.018Z,7.90
2018-07-13T17:02:20.930Z,17.00
2018-07-13T17:07:04.798Z,5.27
2018-07-13T17:11:48.300Z,8.10
2018-07-13T17:16:31.974Z,6.20
2018-07-13T17:21:16.636Z,5.70
2018-07-13T17:26:00.875Z,5.40
2018-07-13T17:30:44.418Z,5.33
2018-07-13T17:35:28.911Z,3.13
2018-07-13T17:40:12.547Z,3.60
2018-07-13T17:45:01.683Z,7.27
2018-07-13T17:49:45.118Z,5.57
2018-07-13T17:54:28.791Z,5.13
2018-07-13T17:59:12.465Z,6.50
2018-07-13T18:03:56.300Z,9.57
2018-07-13T18:08:39.853Z,6.67
2018-07-13T18:13:23.671Z,6.87
2018-07-13T18:18:07.980Z,4.80
2018-07-13T18:22:52.521Z,7.33
2018-07-13T18:27:36.140Z,5.60
2018-07-13T18:32:23.085Z,5.67
2018-07-13T18:37:06.635Z,7.03
2018-07-13T18:41:50.418Z,5.33
2018-07-13T18:46:34.102Z,5.33
2018-07-13T18:51:18.014Z,8.40
2018-07-13T18:56:01.569Z,6.10
2018-07-13T19:00:45.262Z,5.97
2018-07-13T19:05:28.995Z,5.97
2018-07-13T19:10:12.698Z,5.00
2018-07-13T19:14:57.054Z,4.87
2018-07-13T19:19:40.741Z,6.60
2018-07-13T19:24:24.395Z,4.83
2018-07-13T19:29:08.240Z,5.03
2018-07-13T19:33:55.650Z,5.03
2018-07-13T19:38:39.288Z,5.33
2018-07-13T19:43:24.536Z,4.90
2018-07-13T19:48:08.325Z,4.67
2018-07-13T19:52:52.048Z,4.80
2018-07-13T19:57:36.247Z,4.77
2018-07-13T20:02:19.901Z,4.80
2018-07-13T20:07:03.986Z,5.20
2018-07-13T20:11:47.666Z,4.87
2018-07-13T20:16:31.301Z,5.83
2018-07-13T20:21:15.974Z,4.50
2018-07-13T20:25:59.555Z,4.77
2018-07-13T20:30:46.803Z,4.27
2018-07-13T20:35:30.506Z,6.20
2018-07-13T20:40:14.203Z,5.63
2018-07-13T20:44:58.273Z,5.20
2018-07-13T20:49:41.889Z,6.97
2018-07-13T20:54:28.531Z,5.30
2018-07-13T20:59:12.234Z,4.80
2018-07-13T21:04:00.090Z,4.93
2018-07-13T21:08:43.649Z,5.73
2018-07-13T21:13:30.825Z,5.10
2018-07-13T21:18:14.504Z,4.90
2018-07-13T21:23:01.867Z,5.47
2018-07-13T21:27:45.397Z,4.73
2018-07-13T21:32:29.196Z,4.80
2018-07-13T21:37:12.562Z,5.40
2018-07-13T21:41:57.264Z,6.20
2018-07-13T21:46:40.836Z,5.53
2018-07-13T21:51:24.571Z,6.13
2018-07-13T21:56:08.000Z,4.90
2018-07-13T22:00:52.722Z,5.40
2018-07-13T22:05:36.416Z,6.47
2018-07-13T22:10:20.182Z,5.90
2018-07-13T22:15:03.827Z,5.97
2018-07-13T22:19:47.382Z,10.87
2018-07-13T22:24:31.158Z,7.77
2018-07-13T22:29:14.711Z,16.07
2018-07-13T22:33:59.332Z,6.97
2018-07-13T22:38:42.668Z,10.83
2018-07-13T22:43:26.240Z,11.13
2018-07-13T22:48:09.904Z,12.87
2018-07-13T22:52:53.589Z,7.63
2018-07-13T22:57:37.221Z,8.07
2018-07-13T23:02:24.653Z,5.27
2018-07-13T23:07:08.269Z,5.20
2018-07-13T23:11:52.472Z,6.90
2018-07-13T23:16:36.029Z,5.73
2018-07-13T23:21:20.826Z,5.83
2018-07-13T23:26:04.300Z,4.83
2018-07-13T23:30:52.228Z,5.03
2018-07-13T23:35:35.572Z,4.77
2018-07-13T23:40:22.667Z,4.83
2018-07-13T23:45:06.080Z,5.20
2018-07-13T23:49:49.589Z,5.60
2018-07-13T23:54:34.277Z,8.13
2018-07-13T23:59:17.641Z,5.87
